Terminal Aerodrome Forecast
Issued by NWS

Home | Current Version | Previous Version | Text Only | Print | Product List | Glossary On
Versions: 1 2 3 4 5 6 7 8 9 10 11 12 13 14 15 16 17
699
FTUS43 KIND 210209 AAA
TAFHUF
TAF AMD
KHUF 210209Z 2102/2124 VRB03KT P6SM BKN150
     FM211000 17008KT P6SM VCTS BKN050CB
     FM212000 22009KT P6SM VCTS BKN040CB=

USA.gov is the U.S. government's official web portal to all federal, state and local government web resources and services.